Home > Products > Valid Products > TAF

000
FTUS43 KILX 311100 AAC
TAFCMI
TAF AMD
KCMI 311148Z 3112/0112 34020G29KT P6SM VCSH SCT015 OVC021
     FM311400 34023G36KT P6SM BKN035
     FM311600 34025G40KT P6SM -RASN BKN045
     FM311800 34025G40KT P6SM BKN045
     FM010200 34016KT P6SM SCT030=



000
FTUS43 KILX 311100 RRA
TAFPIA
TAF
KPIA 311147Z 3112/0112 33010G18KT P6SM BKN050
     FM311400 34018G30KT P6SM VCSH BKN045
     FM311600 34020G32KT P6SM BKN040
     FM311800 35020G30KT P6SM SCT050
     FM010000 35008KT P6SM SKC=



000
FTUS43 KILX 311100 RRA
TAFBMI
TAF
KBMI 311147Z 3112/0112 33013KT P6SM OVC030
     FM311430 34020G30KT P6SM -RASN BKN035
     FM311700 34024G36KT P6SM BKN040
     FM312200 35024G36KT P6SM SCT040
     FM010100 34014KT P6SM SKC=



000
FTUS43 KILX 311100 RRA
TAFSPI
TAF
KSPI 311147Z 3112/0112 34020G31KT P6SM SCT029 OVC035
     FM311400 34022G35KT P6SM BKN040
     FM311700 34023G36KT P6SM SCT045
     FM010000 34012KT P6SM SKC
     FM010600 34009KT P6SM SKC=



000
FTUS43 KILX 311100 RRA
TAFDEC
TAF
KDEC 311147Z 3112/0112 33021G32KT P6SM BKN021 OVC045
     FM311400 34022G34KT P6SM BKN035
     FM312000 34024G36KT P6SM SCT035
     FM010100 34015KT P6SM SKC=



000
FTUS43 KILX 311100 RRA
TAFCMI
TAF
KCMI 311147Z 3112/0112 34020G29KT P6SM VCSH SCT015 OVC021
     FM311400 34023G36KT P6SM BKN035
     FM311600 34025G40KT P6SM -RASN BKN045
     FM010200 34016KT P6SM SCT030=



000
FTUS43 KILX 311100 AAB
TAFCMI
TAF AMD
KCMI 311130Z 3112/0106 34020G32KT P6SM VCSH OVC021
     FM311400 34023G36KT P6SM BKN035
     FM311700 34025G40KT P6SM VCSH BKN045
     FM010200 32016KT P6SM SCT030=



000
FTUS43 KILX 311100 AAA
TAFCMI
TAF AMD
KCMI 311127Z 3111/0106 34020G34KT P6SM VCSH BKN015 OVC040
     FM311400 34023G36KT P6SM BKN035
     FM311700 34025G40KT P6SM VCSH BKN045
     FM010200 32016KT P6SM SCT030=



000
FTUS43 KILX 311100 AAA
TAFDEC
TAF AMD
KDEC 311125Z 3111/0106 33020G32KT P6SM VCSH BKN020 OVC045
     FM311400 34022G34KT P6SM BKN035
     FM312000 34024G36KT P6SM SCT035
     FM010100 34015KT P6SM SKC=



000
FTUS43 KILX 311100 AAA
TAFSPI
TAF AMD
KSPI 311124Z 3111/0106 34020G32KT P6SM SCT025 OVC035
     FM311400 34022G35KT P6SM BKN040
     FM311700 34023G36KT P6SM SCT045
     FM010000 34012KT P6SM SKC=



000
FTUS43 KILX 310800 AAA
TAFPIA
TAF AMD
KPIA 310821Z 3108/0106 32009KT P6SM VCSH BKN050
     FM311100 34015KT P6SM VCSH OVC035
     FM311400 34018G30KT P6SM BKN035
     FM311800 35020G30KT P6SM SCT050
     FM010000 35008KT P6SM SKC=



000
FTUS43 KILX 310800 AAA
TAFBMI
TAF AMD
KBMI 310820Z 3108/0106 29007KT P6SM VCSH BKN040
     FM311100 34015KT P6SM VCSH BKN040
     FM311400 34020G30KT P6SM BKN035
     FM312000 35022G32KT P6SM SCT030
     FM010100 34014KT P6SM SKC=



000
FTUS43 KILX 310500
TAFSPI
TAF
KSPI 310520Z 3106/0106 36005KT P6SM VCSH BKN050
     FM311000 33014KT P6SM VCSH SCT015 OVC035
     FM311400 34020G30KT P6SM BKN030
     FM311900 34020G30KT P6SM SCT045
     FM010000 34012KT P6SM SKC=



000
FTUS43 KILX 310500
TAFPIA
TAF
KPIA 310520Z 3106/0106 02004KT 5SM BR VCSH OVC050
     FM310900 34015KT P6SM VCSH BKN020 OVC045
     FM311400 34018G30KT P6SM BKN035
     FM311800 35020G30KT P6SM SCT050
     FM010000 35008KT P6SM SKC=



000
FTUS43 KILX 310500
TAFCMI
TAF
KCMI 310520Z 3106/0106 VRB04KT 6SM BR OVC045
     FM311000 33014KT P6SM VCSH SCT015 OVC030
     FM311400 34022G32KT P6SM BKN025
     FM311700 34022G35KT P6SM VCSH OVC025
     FM010200 32016KT P6SM SCT030=



000
FTUS43 KILX 310500
TAFDEC
TAF
KDEC 310520Z 3106/0106 VRB05KT P6SM VCSH OVC045
     FM311000 33014KT P6SM VCSH SCT015 OVC035
     FM311400 34020G30KT P6SM BKN025
     FM312000 34020G30KT P6SM SCT035
     FM010100 34014KT P6SM SKC=



000
FTUS43 KILX 310500
TAFBMI
TAF
KBMI 310520Z 3106/0106 VRB05KT 5SM BR VCSH OVC050
     FM310900 34015KT P6SM VCSH BKN020 OVC040
     FM311400 34020G30KT P6SM BKN025
     FM312000 35022G32KT P6SM SCT030
     FM010100 34014KT P6SM SKC=



000
FTUS43 KILX 302300
TAFDEC
TAF
KDEC 302324Z 3100/3124 VRB05KT P6SM SCT025 OVC050
      TEMPO 3100/3102 6SM -RA BKN025
     FM310200 VRB05KT P6SM BKN050
     FM311000 34014KT P6SM VCSH SCT015 OVC035
     FM311300 34020G30KT P6SM SCT040=



000
FTUS43 KILX 302300
TAFSPI
TAF
KSPI 302324Z 3100/3124 VRB05KT P6SM SCT025 OVC050
      TEMPO 3100/3101 6SM -RA BKN025
     FM310200 VRB05KT P6SM BKN050
     FM310900 34014KT P6SM VCSH SCT015 OVC035
     FM311300 34020G30KT P6SM SCT100=



000
FTUS43 KILX 302300
TAFBMI
TAF
KBMI 302324Z 3100/3124 VRB05KT P6SM VCSH SCT006 OVC050
      TEMPO 3100/3101 4SM -RA BR BKN006
     FM310800 34015KT P6SM VCSH SCT015 OVC035
     FM311400 34020G30KT P6SM BKN040
     FM311800 35022G32KT P6SM SCT050=



000
FTUS43 KILX 302300
TAFPIA
TAF
KPIA 302324Z 3100/3124 05005KT P6SM VCSH OVC050
     FM310700 34014KT P6SM VCSH SCT015 OVC035
     FM311200 34020G30KT P6SM SCT100=



000
FTUS43 KILX 302300
TAFCMI
TAF
KCMI 302324Z 3100/3124 VRB05KT P6SM VCSH SCT020 OVC050
      TEMPO 3100/3102 6SM -RA BKN020
     FM310300 VRB04KT P6SM OVC045
     FM311100 34014KT P6SM VCSH SCT015 OVC035
     FM311400 34022G32KT P6SM BKN025=



000
FTUS43 KILX 302200 AAA
TAFPIA
TAF AMD
KPIA 302225Z 3022/3118 04005KT P6SM VCSH OVC050
      TEMPO 3022/3024 P6SM -RA
     FM310200 33005KT P6SM VCSH BKN050
     FM311100 34014KT P6SM SCT050
     FM311500 34020G30KT P6SM SCT100=



000
FTUS43 KILX 302200 AAA
TAFCMI
TAF AMD
KCMI 302223Z 3022/3118 VRB05KT P6SM VCSH OVC050
      TEMPO 3022/3101 P6SM -RA
     FM310300 33005KT P6SM VCSH BKN045
     FM311200 34014KT P6SM BKN050
     FM311500 34020G30KT P6SM BKN050=



000
FTUS43 KILX 302200 AAA
TAFBMI
TAF AMD
KBMI 302222Z 3022/3118 VRB05KT P6SM VCSH OVC050
      TEMPO 3022/3101 P6SM -RA
     FM310300 33005KT P6SM VCSH BKN045
     FM311100 34015KT P6SM BKN050
     FM311500 34020G30KT P6SM SCT050=



000
FTUS43 KILX 301700
TAFSPI
TAF
KSPI 301737Z 3018/3118 19011KT P6SM VCSH SCT070 BKN100
      TEMPO 3018/3019 -RA BKN070
     FM302100 VRB06KT P6SM SCT070 BKN120
     FM310200 33005KT P6SM BKN050
     FM311100 34014KT P6SM SCT050
     FM311500 34020G30KT P6SM SCT100=



000
FTUS43 KILX 301700
TAFDEC
TAF
KDEC 301737Z 3018/3118 16007KT P6SM VCSH BKN070
     FM302200 VRB06KT P6SM SCT070 BKN120
     FM310200 33005KT P6SM BKN050
     FM311100 34014KT P6SM BKN050
     FM311500 34020G30KT P6SM BKN050=



000
FTUS43 KILX 301700
TAFBMI
TAF
KBMI 301737Z 3018/3118 17009KT P6SM BKN070 OVC100
     FM301900 17009KT P6SM VCSH BKN070 OVC100
     FM302200 VRB06KT P6SM SCT070 BKN120
     FM310300 33005KT P6SM VCSH BKN045
     FM311100 34015KT P6SM BKN050
     FM311500 34020G30KT P6SM SCT050=



000
FTUS43 KILX 301700
TAFPIA
TAF
KPIA 301737Z 3018/3118 17008KT P6SM VCSH BKN070
     FM302100 VRB06KT P6SM SCT070 BKN120
     FM310200 33005KT P6SM VCSH BKN050
     FM311100 34014KT P6SM SCT050
     FM311500 34020G30KT P6SM SCT100=



000
FTUS43 KILX 301700
TAFSPI
TAF
KSPI 301737Z 3018/3118 19011KT P6SM VCSH SCT070 BKN100
      TEMPO 3018/3019 -RA BKN070
     FM302100 VRB06KT P6SM SCT070 BKN120
     FM310200 33005KT P6SM BKN050
     FM311100 34014KT P6SM SCT050
     FM311500 34020G30KT P6SM SCT100=



000
FTUS43 KILX 301700
TAFPIA
TAF
KPIA 301737Z 3018/3118 17008KT P6SM VCSH BKN070
     FM302100 VRB06KT P6SM SCT070 BKN120
     FM310200 33005KT P6SM VCSH BKN050
     FM311100 34014KT P6SM SCT050
     FM311500 34020G30KT P6SM SCT100=



000
FTUS43 KILX 301700
TAFBMI
TAF
KBMI 301737Z 3018/3118 17009KT P6SM BKN070 OVC100
     FM301900 17009KT P6SM VCSH BKN070 OVC100
     FM302200 VRB06KT P6SM SCT070 BKN120
     FM310300 33005KT P6SM VCSH BKN045
     FM311100 34015KT P6SM BKN050
     FM311500 34020G30KT P6SM SCT050=



000
FTUS43 KILX 301700
TAFDEC
TAF
KDEC 301737Z 3018/3118 16007KT P6SM VCSH BKN070
     FM302200 VRB06KT P6SM SCT070 BKN120
     FM310200 33005KT P6SM BKN050
     FM311100 34014KT P6SM BKN050
     FM311500 34020G30KT P6SM BKN050=



000
FTUS43 KILX 301700
TAFCMI
TAF
KCMI 301737Z 3018/3118 17007KT P6SM SCT060 BKN100
     FM302000 18009KT P6SM VCSH BKN070 OVC100
     FM302300 VRB06KT P6SM SCT070 BKN120
     FM310300 33005KT P6SM VCSH BKN045
     FM311200 34014KT P6SM BKN050
     FM311500 34020G30KT P6SM BKN050=



000
FTUS43 KILX 301700
TAFCMI
TAF
KCMI 301737Z 3018/3118 17007KT P6SM SCT060 BKN100
     FM302000 18009KT P6SM VCSH BKN070 OVC100
     FM302300 VRB06KT P6SM SCT070 BKN120
     FM310300 33005KT P6SM VCSH BKN045
     FM311200 34014KT P6SM BKN050
     FM311500 34020G30KT P6SM BKN050=



000
FTUS43 KILX 301100
TAFCMI
TAF
KCMI 301135Z 3012/3112 18004KT P6SM BKN200
     FM301700 17007KT P6SM SCT060 BKN100
     FM302000 VRB06KT P6SM VCSH BKN050 OVC100
     FM310300 33005KT P6SM BKN045=



000
FTUS43 KILX 301100
TAFSPI
TAF
KSPI 301135Z 3012/3112 18004KT P6SM BKN200
     FM301500 16007KT P6SM SCT050 OVC120
     FM301800 VRB05KT P6SM VCSH OVC045
     FM310200 33005KT P6SM BKN050=



000
FTUS43 KILX 301100
TAFDEC
TAF
KDEC 301135Z 3012/3112 18004KT P6SM BKN200
     FM301600 16007KT P6SM SCT050 OVC120
     FM301900 VRB05KT P6SM VCSH OVC045
     FM310200 33005KT P6SM BKN050=



000
FTUS43 KILX 301100
TAFBMI
TAF
KBMI 301135Z 3012/3112 18005KT P6SM BKN200
     FM301600 17007KT P6SM SCT045 BKN100
     FM301900 VRB06KT P6SM VCSH OVC040
     FM310300 33005KT P6SM BKN045=



000
FTUS43 KILX 301100
TAFPIA
TAF
KPIA 301135Z 3012/3112 18004KT P6SM BKN200
     FM301500 17005KT P6SM SCT050 BKN100
     FM301800 VRB05KT P6SM VCSH OVC045
     FM310200 33005KT P6SM BKN050=



000
FTUS43 KILX 300500
TAFBMI
TAF
KBMI 300522Z 3006/3106 VRB03KT P6SM SKC
     FM301000 VRB04KT P6SM BKN200
     FM301600 17007KT P6SM SCT045 BKN100
     FM302000 15006KT P6SM VCSH OVC045
     FM310200 36005KT P6SM VCSH OVC040=



000
FTUS43 KILX 300500
TAFDEC
TAF
KDEC 300522Z 3006/3106 VRB03KT P6SM SKC
     FM301100 15004KT P6SM BKN200
     FM301700 16007KT P6SM BKN050 OVC120
     FM301900 15006KT P6SM VCSH OVC050
     FM310100 02004KT P6SM VCSH OVC045=



000
FTUS43 KILX 300500
TAFSPI
TAF
KSPI 300522Z 3006/3106 VRB03KT P6SM SKC
     FM301000 15004KT P6SM BKN200
     FM301600 16007KT P6SM BKN050 OVC120
     FM301800 15006KT P6SM VCSH OVC050
     FM310100 02004KT P6SM VCSH OVC045=



000
FTUS43 KILX 300500
TAFPIA
TAF
KPIA 300522Z 3006/3106 VRB03KT P6SM SKC
     FM300900 16004KT P6SM BKN200
     FM301500 17007KT P6SM SCT050 BKN100
     FM301900 16006KT P6SM VCSH OVC050
     FM310100 03005KT P6SM VCSH OVC040=



000
FTUS43 KILX 300500
TAFCMI
TAF
KCMI 300522Z 3006/3106 34006KT P6SM SKC
     FM301200 14004KT P6SM BKN200
     FM301800 17007KT P6SM BKN100
     FM302000 16006KT P6SM VCSH BKN050 OVC100
     FM310200 15005KT P6SM VCSH OVC050=



000
FTUS43 KILX 292300
TAFCMI
TAF
KCMI 292337Z 3000/3024 34006KT P6SM SCT040
     FM301200 14004KT P6SM BKN200
     FM301800 17007KT P6SM BKN100
     FM302200 15006KT P6SM SCT050 OVC100=



000
FTUS43 KILX 292300
TAFBMI
TAF
KBMI 292337Z 3000/3024 34005KT P6SM SKC
     FM301000 VRB04KT P6SM BKN200
     FM301600 17007KT P6SM SCT045 BKN150
     FM302100 15006KT P6SM VCSH OVC045=



000
FTUS43 KILX 292300
TAFSPI
TAF
KSPI 292337Z 3000/3024 VRB03KT P6SM SKC
     FM301100 15004KT P6SM BKN200
     FM301600 16007KT P6SM SCT050 BKN100
     FM302000 15006KT P6SM VCSH OVC050=



000
FTUS43 KILX 292300
TAFPIA
TAF
KPIA 292337Z 3000/3024 VRB03KT P6SM SKC
     FM301000 16004KT P6SM BKN200
     FM301500 17007KT P6SM SCT050 BKN100
     FM302000 16006KT P6SM VCSH OVC050=



000
FTUS43 KILX 292300
TAFDEC
TAF
KDEC 292337Z 3000/3024 35005KT P6SM SKC
     FM301200 15004KT P6SM BKN200
     FM301700 16007KT P6SM SCT050 BKN100
     FM302100 15006KT P6SM OVC050=



000
FTUS43 KILX 292200 AAA
TAFCMI
TAF AMD
KCMI 292216Z 2922/3018 32014KT P6SM BKN040
     FM300100 VRB04KT P6SM SCT200
     FM301500 17008KT P6SM BKN040 OVC200=



000
FTUS43 KILX 292200 AAA
TAFDEC
TAF AMD
KDEC 292215Z 2922/3018 32012KT P6SM BKN045
     FM301000 VRB03KT P6SM SKC
     FM301500 17008KT P6SM SCT040 BKN200=



000
FTUS43 KILX 292200 AAA
TAFSPI
TAF AMD
KSPI 292214Z 2922/3018 32010KT P6SM SCT040
     FM300000 VRB03KT P6SM SKC
     FM301600 16007KT P6SM SCT040 BKN200=



000
FTUS43 KILX 292200 AAA
TAFPIA
TAF AMD
KPIA 292213Z 2922/3018 32008KT P6SM SCT040
     FM300000 VRB03KT P6SM SCT200
     FM301500 17007KT P6SM BKN040 OVC200=



000
FTUS43 KILX 291700
TAFDEC
TAF
KDEC 291735Z 2918/3018 30012G22KT P6SM SCT040
      TEMPO 2918/2922 BKN040
     FM301000 VRB03KT P6SM SKC
     FM301500 17008KT P6SM SCT040 BKN200=



000
FTUS43 KILX 291700
TAFCMI
TAF
KCMI 291735Z 2918/3018 30012G22KT P6SM BKN040
     FM300100 VRB04KT P6SM SCT200
     FM301500 17008KT P6SM BKN040 BKN200=



000
FTUS43 KILX 291700
TAFPIA
TAF
KPIA 291735Z 2918/3018 30012G20KT P6SM BKN040
     FM300000 VRB03KT P6SM SCT200
     FM301500 17007KT P6SM BKN040 BKN200=



000
FTUS43 KILX 291700
TAFSPI
TAF
KSPI 291735Z 2918/3018 30012G17KT P6SM SCT040
      TEMPO 2918/2922 BKN040
     FM300000 VRB03KT P6SM SKC
     FM301600 16007KT P6SM SCT040 BKN200=



000
FTUS43 KILX 291700
TAFBMI
TAF
KBMI 291735Z 2918/3018 30014KT P6SM BKN040
     FM301000 VRB04KT P6SM SCT200
     FM301500 18007KT P6SM BKN040 BKN200=



000
FTUS43 KILX 291100
TAFSPI
TAF
KSPI 291137Z 2912/3012 26006KT P6SM SKC
     FM291500 30012KT P6SM SCT040
      TEMPO 2915/2919 BKN040
     FM300000 VRB03KT P6SM SKC=



000
FTUS43 KILX 291100
TAFBMI
TAF
KBMI 291137Z 2912/3012 28008KT P6SM BKN040
     FM291500 30014KT P6SM BKN040
     FM301000 VRB04KT P6SM SKC=



000
FTUS43 KILX 291100
TAFPIA
TAF
KPIA 291137Z 2912/3012 28008KT P6SM BKN040
     FM291500 30012KT P6SM BKN040
     FM300000 VRB03KT P6SM SKC=



000
FTUS43 KILX 291100
TAFDEC
TAF
KDEC 291137Z 2912/3012 26006KT P6SM SKC
     FM291500 30012KT P6SM SCT040
      TEMPO 2915/2919 BKN040
     FM301000 VRB03KT P6SM SKC=



000
FTUS43 KILX 291100
TAFCMI
TAF
KCMI 291137Z 2912/3012 25006KT P6SM SKC
     FM291500 30012KT P6SM SCT040
      TEMPO 2915/2919 BKN040
     FM300200 VRB04KT P6SM SKC=



000
FTUS43 KILX 290500
TAFSPI
TAF
KSPI 290525Z 2906/3006 26006KT P6SM SKC
     FM291500 30011KT P6SM SCT045
     FM300000 31005KT P6SM SKC=



000
FTUS43 KILX 290500
TAFDEC
TAF
KDEC 290525Z 2906/3006 27006KT P6SM SKC
     FM291500 30012KT P6SM SCT045
     FM300000 31005KT P6SM SKC=



000
FTUS43 KILX 290500
TAFPIA
TAF
KPIA 290525Z 2906/3006 28006KT P6SM SKC
     FM291500 30012KT P6SM SCT045
     FM300000 32005KT P6SM SKC=



000
FTUS43 KILX 290500
TAFCMI
TAF
KCMI 290525Z 2906/3006 29007KT P6SM SKC
     FM291500 30012KT P6SM SCT045
     FM300000 31005KT P6SM SKC=



000
FTUS43 KILX 290500
TAFBMI
TAF
KBMI 290525Z 2906/3006 27008KT P6SM SKC
     FM291500 30013KT P6SM SCT040
     FM300000 31005KT P6SM SKC=



000
FTUS43 KILX 282300
TAFCMI
TAF
KCMI 282334Z 2900/2924 26008KT P6SM BKN200
     FM291500 30012KT P6SM SCT045=



000
FTUS43 KILX 282300
TAFDEC
TAF
KDEC 282334Z 2900/2924 27008KT P6SM BKN200
     FM291500 30012KT P6SM SCT045=



000
FTUS43 KILX 282300
TAFPIA
TAF
KPIA 282334Z 2900/2924 29008KT P6SM SCT050 BKN200
     FM290900 28005KT P6SM SCT040
     FM291500 30012KT P6SM SCT045=



000
FTUS43 KILX 282300
TAFSPI
TAF
KSPI 282334Z 2900/2924 27006KT P6SM BKN200
     FM291500 30011KT P6SM SCT045=



000
FTUS43 KILX 282300
TAFBMI
TAF
KBMI 282334Z 2900/2924 27008KT P6SM BKN200
     FM290900 28008KT P6SM SCT040
     FM291500 30013KT P6SM SCT040=



000
FTUS43 KILX 281700 AAA
TAFPIA
TAF AMD
KPIA 281759Z 2818/2918 29015G23KT P6SM SKC
     FM282300 27006KT P6SM SCT250
     FM290900 28005KT P6SM SCT040
     FM291300 30010KT P6SM SCT050=



000
FTUS43 KILX 281700 AAA
TAFSPI
TAF AMD
KSPI 281759Z 2818/2918 28014G22KT P6SM SKC
     FM282300 27006KT P6SM SKC
     FM291400 30009KT P6SM SCT050=



000
FTUS43 KILX 281700
TAFDEC
TAF
KDEC 281720Z 2818/2918 27014G22KT P6SM SKC
     FM282300 27008KT P6SM SKC
     FM291400 30009KT P6SM SCT050=



000
FTUS43 KILX 281700
TAFPIA
TAF
KPIA 281720Z 2818/2918 30015G23KT P6SM SKC
     FM282300 27006KT P6SM SCT250
     FM290900 28005KT P6SM SCT040
     FM291300 30010KT P6SM SCT050=



000
FTUS43 KILX 281700
TAFCMI
TAF
KCMI 281720Z 2818/2918 27016G23KT P6SM SKC
     FM282300 26008KT P6SM SKC
     FM291300 30010KT P6SM SCT050=



000
FTUS43 KILX 281700
TAFSPI
TAF
KSPI 281720Z 2818/2918 30014G22KT P6SM SKC
     FM282300 27006KT P6SM SKC
     FM291400 30009KT P6SM SCT050=



000
FTUS43 KILX 281700
TAFBMI
TAF
KBMI 281720Z 2818/2918 27016G24KT P6SM SKC
     FM282300 27008KT P6SM SCT250
     FM290900 28008KT P6SM SCT040
     FM291300 30010KT P6SM SCT050=



000
FTUS43 KILX 281700 AAB
TAFPIA
TAF AMD
KPIA 281712Z 2817/2912 30015G23KT P6SM SKC
     FM282300 27006KT P6SM SCT250
     FM290900 28005KT P6SM SCT040=



000
FTUS43 KILX 281500 AAA
TAFPIA
TAF AMD
KPIA 281559Z 2816/2912 31015G23KT P6SM SKC
     FM282300 27006KT P6SM SCT250
     FM290900 28005KT P6SM SCT040=



000
FTUS43 KILX 281500 AAA
TAFSPI
TAF AMD
KSPI 281559Z 2816/2912 30014G22KT P6SM SKC
     FM282300 27006KT P6SM SKC=



000
FTUS43 KILX 281500 AAA
TAFPIA
TAF AMD
KPIA 281559Z 2816/2912 31015G23KT P6SM SKC
     FM282300 27006KT P6SM SCT250
     FM290900 28005KT P6SM SCT040=



000
FTUS43 KILX 281500 AAA
TAFSPI
TAF AMD
KSPI 281559Z 2816/2912 30014G22KT P6SM SKC
     FM282300 27006KT P6SM SKC=



    US Dept of Commerce
    National Oceanic and Atmospheric Administration
    National Weather Service
    1325 East West Highway
    Silver Spring, MD 20910
    Page Author: NWS Internet Services Team
Disclaimer
Information Quality
Credits
Glossary
Privacy Policy
Freedom of Information Act (FOIA)
About Us
Career Opportunities